This is the latest recevied weather packets stored in our database for station/object N0TKN. If no packets are shown the sender has not sent any weather packets the latest 10 day(s).
| Time | Temp. | Humidity | Pressure | Rain* | Wind** | Luminosity | Snow |
|---|---|---|---|---|---|---|---|
| 1777692317 | 11.11° C | 70% | 1017.3 hPa | 0 mm | - | 0 W/m² | - |
| 1777691717 | 11.11° C | 68% | 1017.2 hPa | 0 mm | - | 0 W/m² | - |
| 1777691118 | 10.56° C | 73% | 1017.4 hPa | 0 mm | - | 0 W/m² | - |
| 1777690518 | 11.11° C | 73% | 1017.4 hPa | 0 mm | - | 0 W/m² | - |
| 1777689918 | 11.67° C | 63% | 1017.3 hPa | 0 mm | - | 0 W/m² | - |
| 1777689318 | 11.67° C | 60% | 1017.1 hPa | 0 mm | - | 0 W/m² | - |
| 1777688718 | 12.22° C | 60% | 1016.9 hPa | 0 mm | - | 0 W/m² | - |
| 1777688118 | 12.22° C | 59% | 1016.9 hPa | 0 mm | - | 0 W/m² | - |
| 1777687519 | 12.78° C | 56% | 1016.9 hPa | 0 mm | - | 0 W/m² | - |
| 1777686915 | 12.78° C | 57% | 1016.4 hPa | 0 mm | - | 0 W/m² | - |
| 1777686316 | 13.33° C | 57% | 1016.2 hPa | 0 mm | - | 0 W/m² | - |
| 1777685716 | 13.33° C | 57% | 1015.9 hPa | 0 mm | - | 0 W/m² | - |
| 1777685116 | 13.89° C | 51% | 1015.8 hPa | 0 mm | - | 0 W/m² | - |
| 1777684516 | 13.89° C | 50% | 1015.8 hPa | 0 mm | - | 1 W/m² | - |
| 1777683916 | 13.89° C | 52% | 1015.8 hPa | 0 mm | - | 3 W/m² | - |
| 1777683316 | 14.44° C | 50% | 1016 hPa | 0 mm | - | 8 W/m² | - |
| 1777682716 | 15° C | 49% | 1016.1 hPa | 0 mm | - | 16 W/m² | - |
| 1777682117 | 15.56° C | 46% | 1016 hPa | 0 mm | - | 25 W/m² | - |
| 1777681517 | 16.11° C | 44% | 1015.9 hPa | 0 mm | - | 32 W/m² | - |
| 1777680917 | 16.11° C | 42% | 1015.7 hPa | 0 mm | - | 43 W/m² | - |
| 1777680317 | 16.67° C | 41% | 1015.5 hPa | 0 mm | - | 59 W/m² | - |
| 1777679717 | 16.67° C | 41% | 1015.6 hPa | 0 mm | - | 52 W/m² | - |
| 1777679118 | 16.67° C | 41% | 1015.1 hPa | 0 mm | - | 114 W/m² | - |
| 1777678517 | 16.67° C | 41% | 1015.2 hPa | 0 mm | - | 105 W/m² | - |
| 1777677918 | 16.67° C | 40% | 1015.4 hPa | 0 mm | - | 85 W/m² | - |
* Rain latest hour (hover to see other rain measurements)
** Current wind speed in m/s (hover to see current wind gust speed)